Terminal Aerodrome Forecast
Issued by NWS Blacksburg, VA

Home | Current Version | Previous Version | Text Only | Print | Product List | Glossary On
Versions: 1 2 3 4 5 6 7 8 9 10 11 12 13 14 15 16 17 18 19 20 21 22 23 24
000
FTUS41 KRNK 272328
TAFBLF
TAF
KBLF 272328Z 2800/2824 22005KT P6SM BKN045 OVC100
     FM280500 23006KT P6SM OVC030
     FM281000 25006KT P6SM -RA OVC025
     FM281400 27005KT 4SM -RA BR OVC012
     FM281800 28006KT 2SM -RA BR SCT004 OVC007=

USA.gov is the U.S. government's official web portal to all federal, state and local government web resources and services.